Time;durP1;ratioP1;P1;durP2;ratioP2;P2;SDS_P1;SDS_P2;PMS_P1;PMS_P2;Temp;Humidity;BMP_temperature;BMP_pressure;BME280_temperature;BME280_humidity;BME280_pressure;Samples;Min_cycle;Max_cycle;Signal;HPM_P1;HPM_P2
2022/05/05 00:02:01;;;;;;;;;14.00;14.00;;;;;16.46;41.08;98958.28;6299667;27;96891;-70
2022/05/05 00:05:07;;;;;;;;;16.00;16.00;;;;;16.37;40.99;98940.78;6294597;27;98531;-70
2022/05/05 00:08:11;;;;;;;;;16.00;15.00;;;;;16.45;41.02;98962.91;6296174;27;97647;-70
2022/05/05 00:14:35;;;;;;;;;15.00;14.00;;;;;16.48;40.62;98967.81;6283775;27;97831;-71
2022/05/05 00:17:40;;;;;;;;;15.80;14.00;;;;;16.47;40.83;98960.72;6310059;27;96707;-69
2022/05/05 00:20:43;;;;;;;;;17.00;14.60;;;;;16.45;40.93;98971.06;6305970;27;97691;-70
2022/05/05 00:23:47;;;;;;;;;17.00;15.75;;;;;16.43;41.14;98966.94;6291969;27;97406;-69
2022/05/05 00:26:50;;;;;;;;;16.00;14.20;;;;;16.41;41.11;98969.13;6311672;27;97099;-69
2022/05/05 00:29:54;;;;;;;;;15.00;14.00;;;;;16.39;41.08;98977.53;6295498;27;98226;-70
2022/05/05 00:32:59;;;;;;;;;16.80;16.00;;;;;16.40;41.26;98981.91;6313102;27;96649;-70
2022/05/05 00:36:03;;;;;;;;;17.50;16.25;;;;;16.31;41.41;98980.72;6309519;27;97451;-70
2022/05/05 00:39:08;;;;;;;;;18.00;15.00;;;;;16.32;41.30;98976.09;6290380;27;97643;-69
2022/05/05 00:42:12;;;;;;;;;17.00;16.00;;;;;16.14;41.30;98941.91;6292837;27;97449;-69
2022/05/05 00:45:16;;;;;;;;;15.00;15.00;;;;;16.28;41.67;98967.59;6293117;27;97820;-69
2022/05/05 00:48:25;;;;;;;;;18.00;17.00;;;;;16.24;41.73;98971.09;6295091;27;97873;-69
2022/05/05 00:51:29;;;;;;;;;19.00;17.40;;;;;16.23;41.73;98977.63;6273418;27;97927;-70
2022/05/05 00:54:32;;;;;;;;;18.00;17.00;;;;;16.14;41.98;98979.16;6295449;27;96803;-69
2022/05/05 00:57:37;;;;;;;;;15.00;14.00;;;;;16.07;42.14;98983.97;6286436;27;99554;-69
2022/05/05 01:00:40;;;;;;;;;18.60;17.00;;;;;16.04;42.13;98977.13;6287275;27;96618;-71
2022/05/05 01:03:45;;;;;;;;;15.60;15.00;;;;;15.98;42.37;98976.25;6294509;27;96712;-69
2022/05/05 01:06:49;;;;;;;;;16.50;15.00;;;;;15.91;42.46;98982.97;6288219;27;97124;-70
2022/05/05 01:09:52;;;;;;;;;15.00;14.00;;;;;15.40;42.55;98911.63;6294474;27;96689;-70
2022/05/05 01:12:56;;;;;;;;;16.00;15.00;;;;;15.76;42.89;98985.50;6294314;27;96989;-70
2022/05/05 01:16:00;;;;;;;;;15.00;14.00;;;;;15.64;43.34;98976.66;6276772;27;97297;-70
2022/05/05 01:19:05;;;;;;;;;15.00;14.00;;;;;15.53;43.72;98981.13;6292919;27;96951;-70
2022/05/05 01:22:10;;;;;;;;;15.40;15.00;;;;;15.46;43.82;98978.56;6309436;27;97363;-71
2022/05/05 01:28:41;;;;;;;;;16.75;15.00;;;;;15.33;44.08;98964.53;6294389;27;96576;-69
2022/05/05 01:31:44;;;;;;;;;17.80;16.00;;;;;15.39;43.96;98974.41;6295755;27;97447;-70
2022/05/05 01:34:48;;;;;;;;;16.60;16.00;;;;;15.35;44.05;98978.66;6299636;27;96580;-69
2022/05/05 01:37:53;;;;;;;;;17.00;15.00;;;;;15.31;44.10;98978.34;6285135;27;98850;-69
2022/05/05 01:40:57;;;;;;;;;16.50;15.00;;;;;15.25;44.30;98984.78;6290129;27;96993;-70
2022/05/05 01:44:01;;;;;;;;;16.00;15.20;;;;;15.25;44.36;98986.69;6308991;27;97478;-70
2022/05/05 01:47:05;;;;;;;;;18.60;17.00;;;;;15.22;44.33;98979.03;6288191;27;97444;-69
2022/05/05 01:50:09;;;;;;;;;17.60;16.00;;;;;15.16;44.66;98986.28;6270130;27;97232;-70
2022/05/05 01:53:13;;;;;;;;;17.20;15.80;;;;;15.06;45.12;98988.81;6289472;27;98452;-70
2022/05/05 01:56:17;;;;;;;;;17.00;15.50;;;;;15.00;45.17;98985.22;6297826;27;97010;-69
2022/05/05 01:59:20;;;;;;;;;18.80;17.00;;;;;14.96;45.30;98988.66;6266671;27;96957;-70
2022/05/05 02:02:23;;;;;;;;;15.20;15.00;;;;;14.97;45.11;98982.19;6303981;27;96978;-69
2022/05/05 02:05:27;;;;;;;;;19.40;17.00;;;;;14.98;44.95;98981.13;6292262;27;99476;-69
2022/05/05 02:08:32;;;;;;;;;17.40;14.00;;;;;14.96;45.18;98975.09;6293792;27;98885;-69
2022/05/05 02:11:41;;;;;;;;;20.00;16.50;;;;;14.94;45.12;98979.97;6311761;27;97512;-69
2022/05/05 02:14:45;;;;;;;;;16.75;14.75;;;;;14.88;45.41;98980.94;6301927;27;96551;-69
2022/05/05 02:17:48;;;;;;;;;21.00;20.00;;;;;14.84;45.50;98985.22;6309127;27;96898;-69
2022/05/05 02:20:52;;;;;;;;;19.00;17.00;;;;;14.82;45.52;98984.66;6291723;27;96707;-69
2022/05/05 02:23:56;;;;;;;;;20.00;17.50;;;;;14.82;45.77;98984.66;6281667;27;96893;-69
2022/05/05 02:27:00;;;;;;;;;21.00;18.00;;;;;14.83;45.46;98978.16;6293321;27;99682;-69
2022/05/05 02:30:04;;;;;;;;;16.00;15.00;;;;;14.85;45.62;98986.88;6291400;27;97981;-69
2022/05/05 02:33:07;;;;;;;;;20.00;18.00;;;;;14.90;45.23;98984.25;6269193;27;97249;-69
2022/05/05 02:39:33;;;;;;;;;18.40;18.40;;;;;14.86;45.45;98991.22;6295940;27;97638;-70
2022/05/05 02:42:36;;;;;;;;;20.25;19.25;;;;;14.89;45.50;98985.31;6294910;27;97472;-70
2022/05/05 02:45:40;;;;;;;;;20.60;19.60;;;;;14.89;45.56;98991.56;6289496;27;97067;-69
2022/05/05 02:48:44;;;;;;;;;20.50;19.25;;;;;14.94;45.34;98994.38;6307618;27;97683;-69
2022/05/05 02:51:47;;;;;;;;;21.25;19.00;;;;;14.96;45.79;98988.66;6308997;27;97511;-69
2022/05/05 02:54:52;;;;;;;;;21.60;20.00;;;;;14.99;46.05;98993.63;6308713;27;96605;-70
2022/05/05 02:57:55;;;;;;;;;19.20;17.80;;;;;14.99;45.60;98993.63;6287118;27;96904;-69
2022/05/05 03:00:59;;;;;;;;;21.40;19.40;;;;;15.02;45.70;98996.66;6278228;27;96877;-70
2022/05/05 03:04:02;;;;;;;;;19.60;17.60;;;;;15.01;45.86;98994.19;6284613;27;97431;-70
2022/05/05 03:07:06;;;;;;;;;19.00;19.00;;;;;15.02;45.70;99002.09;6296428;27;97702;-70
2022/05/05 03:10:13;;;;;;;;;21.00;18.25;;;;;15.01;45.97;98999.59;6291986;27;98436;-69
2022/05/05 03:13:16;;;;;;;;;21.00;19.20;;;;;15.00;46.00;99006.13;6297564;27;96764;-69
2022/05/05 03:16:20;;;;;;;;;18.80;17.00;;;;;15.02;45.69;98999.38;6315890;27;97348;-69
2022/05/05 03:19:23;;;;;;;;;21.40;20.00;;;;;15.05;45.87;98998.06;6313963;27;96593;-69
2022/05/05 03:22:26;;;;;;;;;21.00;20.00;;;;;15.03;45.98;99006.44;6286303;27;99003;-69
2022/05/05 03:25:32;;;;;;;;;21.50;20.50;;;;;15.11;45.65;99008.75;6286667;27;97367;-69
2022/05/05 03:28:35;;;;;;;;;21.00;20.80;;;;;15.12;45.72;99006.84;6288420;27;99639;-69
2022/05/05 03:31:39;;;;;;;;;21.00;19.80;;;;;15.11;45.64;99007.91;6290656;27;97416;-69
2022/05/05 03:34:42;;;;;;;;;23.60;22.00;;;;;15.11;45.72;99013.34;6277267;27;98299;-69
2022/05/05 03:37:46;;;;;;;;;23.00;21.00;;;;;15.15;45.37;99018.03;6276432;27;97098;-69
2022/05/05 03:40:51;;;;;;;;;22.75;21.75;;;;;15.21;45.33;99021.66;6294531;27;98571;-70
2022/05/05 03:43:54;;;;;;;;;20.00;18.00;;;;;15.29;45.15;99023.97;6273171;27;96497;-70
2022/05/05 03:46:58;;;;;;;;;18.80;17.00;;;;;15.24;45.24;99020.34;6306587;27;97496;-70
2022/05/05 03:50:01;;;;;;;;;18.75;17.00;;;;;15.18;45.29;99014.84;6298688;27;97502;-69
2022/05/05 03:53:05;;;;;;;;;19.75;19.50;;;;;15.37;45.05;99031.69;6309869;27;99230;-69
2022/05/05 03:56:09;;;;;;;;;21.75;19.75;;;;;15.43;44.82;99030.69;6302847;27;97116;-69
2022/05/05 03:59:13;;;;;;;;;20.40;19.00;;;;;15.50;44.88;99028.59;6276465;27;98008;-69
2022/05/05 04:02:16;;;;;;;;;18.50;17.50;;;;;15.57;45.20;99034.72;6307116;27;96867;-69
2022/05/05 04:05:19;;;;;;;;;22.50;20.00;;;;;15.63;45.26;99032.09;6287233;27;97479;-69
2022/05/05 04:08:23;;;;;;;;;18.20;17.00;;;;;15.67;44.91;99033.22;6287751;27;97742;-68
2022/05/05 04:11:27;;;;;;;;;23.00;20.00;;;;;15.68;44.85;99026.72;6286725;27;97781;-69
2022/05/05 04:14:33;;;;;;;;;18.00;17.00;;;;;15.71;44.77;99024.31;6306164;27;97581;-69
2022/05/05 04:17:37;;;;;;;;;20.00;18.60;;;;;15.81;44.41;99026.34;6289278;27;99649;-68
2022/05/05 04:20:42;;;;;;;;;22.50;19.50;;;;;15.84;44.64;99025.81;6305244;27;97692;-68
2022/05/05 04:23:45;;;;;;;;;19.00;17.00;;;;;15.97;44.32;99044.50;6311622;27;97547;-68
2022/05/05 04:26:52;;;;;;;;;19.00;17.60;;;;;16.11;44.07;99044.94;6322936;27;97422;-68
2022/05/05 04:29:56;;;;;;;;;16.20;15.80;;;;;16.25;43.92;99038.88;6312179;27;98354;-68
2022/05/05 04:33:00;;;;;;;;;19.00;18.00;;;;;16.48;43.20;99045.91;6313956;27;97396;-68
2022/05/05 04:36:03;;;;;;;;;17.60;16.00;;;;;16.70;42.91;99045.91;6307440;27;97255;-68
2022/05/05 04:39:06;;;;;;;;;18.00;16.20;;;;;16.88;42.01;99048.25;6310143;27;96817;-67
2022/05/05 04:42:11;;;;;;;;;18.00;18.00;;;;;17.11;41.90;99038.91;6307246;27;97378;-68
2022/05/05 04:45:16;;;;;;;;;17.00;16.00;;;;;17.33;41.63;99040.47;6281113;27;97738;-68
2022/05/05 04:48:19;;;;;;;;;19.00;17.00;;;;;17.58;41.22;99047.16;6291104;27;96494;-68
2022/05/05 04:51:23;;;;;;;;;17.80;16.80;;;;;17.88;41.04;99050.09;6269669;27;97439;-67
2022/05/05 04:54:27;;;;;;;;;19.00;17.00;;;;;18.14;40.36;99046.38;6267988;27;98272;-68
2022/05/05 04:57:31;;;;;;;;;19.00;16.00;;;;;18.41;39.55;99056.31;6308707;27;97327;-68
2022/05/05 05:00:36;;;;;;;;;16.00;16.00;;;;;18.64;39.13;99053.13;6293624;27;98913;-68
2022/05/05 05:03:40;;;;;;;;;17.25;16.25;;;;;18.90;39.13;99054.81;6307978;27;97275;-68
2022/05/05 05:06:43;;;;;;;;;16.00;16.00;;;;;19.05;38.38;99043.06;6291222;27;97122;-69
2022/05/05 05:09:48;;;;;;;;;16.40;15.00;;;;;19.34;38.10;99049.63;6305332;27;97415;-69
2022/05/05 05:12:53;;;;;;;;;16.00;15.00;;;;;19.51;37.42;99054.81;6302373;27;97228;-69
2022/05/05 05:15:56;;;;;;;;;17.00;15.00;;;;;19.59;37.39;99061.66;6276703;27;97086;-68
2022/05/05 05:19:00;;;;;;;;;19.40;17.40;;;;;19.60;37.09;99057.81;6291920;27;96594;-68
2022/05/05 05:22:05;;;;;;;;;19.00;17.00;;;;;19.56;37.67;99051.25;6310082;27;96943;-68
2022/05/05 05:25:09;;;;;;;;;19.00;18.00;;;;;19.67;37.67;99052.88;6294310;27;96654;-69
2022/05/05 05:28:15;;;;;;;;;18.40;17.00;;;;;19.79;37.58;99056.16;6312799;27;97520;-69
2022/05/05 05:31:19;;;;;;;;;23.00;18.00;;;;;19.93;37.52;99059.94;6312897;27;98109;-68
2022/05/05 05:34:23;;;;;;;;;17.75;17.00;;;;;20.06;36.97;99058.50;6286434;27;97339;-68
2022/05/05 05:37:26;;;;;;;;;17.00;16.00;;;;;20.15;36.80;99057.66;6285658;27;97117;-69
2022/05/05 05:40:30;;;;;;;;;17.60;17.00;;;;;20.23;37.36;99064.50;6288858;27;96454;-69
2022/05/05 05:43:34;;;;;;;;;18.00;17.00;;;;;20.35;36.82;99061.44;6313235;27;97393;-69
2022/05/05 05:46:38;;;;;;;;;18.00;17.00;;;;;20.43;37.11;99061.66;6298811;27;97224;-69
2022/05/05 05:49:42;;;;;;;;;19.20;17.20;;;;;20.55;36.81;99070.38;6287289;27;97375;-68
2022/05/05 05:52:45;;;;;;;;;23.00;20.40;;;;;20.67;36.69;99072.78;6268336;27;96516;-69
2022/05/05 05:55:49;;;;;;;;;20.40;19.40;;;;;20.75;36.84;99069.44;6287734;27;97478;-68
2022/05/05 05:58:53;;;;;;;;;21.00;19.00;;;;;20.85;36.66;99085.00;6286602;27;96889;-69
2022/05/05 06:05:17;;;;;;;;;21.00;19.00;;;;;21.06;36.16;99075.53;6289110;27;97176;-70
2022/05/05 06:08:21;;;;;;;;;18.00;17.40;;;;;21.17;35.63;99069.72;6294210;27;97478;-68
2022/05/05 06:11:24;;;;;;;;;20.00;16.80;;;;;21.22;35.60;99068.03;6292758;27;97531;-68
2022/05/05 06:14:29;;;;;;;;;20.00;17.75;;;;;21.22;35.63;99074.34;6292190;27;97500;-68
2022/05/05 06:17:32;;;;;;;;;20.25;17.25;;;;;21.36;35.88;99072.56;6268035;27;98532;-68
2022/05/05 06:20:38;;;;;;;;;21.50;18.50;;;;;21.42;35.37;99070.59;6287324;27;96901;-68
2022/05/05 06:23:41;;;;;;;;;19.60;19.60;;;;;21.43;35.36;99073.06;6257263;27;98554;-68
2022/05/05 06:26:45;;;;;;;;;19.00;18.40;;;;;21.49;35.36;99073.84;6303072;27;97517;-68
2022/05/05 06:29:49;;;;;;;;;17.00;15.60;;;;;21.65;36.28;99075.31;6286564;27;97781;-68
2022/05/05 06:32:53;;;;;;;;;17.00;16.40;;;;;21.87;35.73;99078.41;6308549;27;97144;-68
2022/05/05 06:35:56;;;;;;;;;20.00;17.40;;;;;22.13;35.82;99073.47;6308359;27;97516;-68
2022/05/05 06:38:59;;;;;;;;;18.00;17.50;;;;;22.34;35.77;99074.84;6301455;27;97254;-70
2022/05/05 06:42:03;;;;;;;;;17.20;16.20;;;;;22.54;34.91;99071.03;6292451;27;97508;-70
2022/05/05 06:45:10;;;;;;;;;19.33;17.67;;;;;22.74;35.09;99075.44;6295132;27;97236;-69
2022/05/05 06:48:13;;;;;;;;;17.50;15.75;;;;;22.97;34.93;99076.50;6295074;27;97080;-69
2022/05/05 06:51:17;;;;;;;;;16.00;16.00;;;;;23.19;34.75;99074.78;6297004;27;96407;-69
2022/05/05 06:54:20;;;;;;;;;16.67;15.00;;;;;23.45;34.09;99079.88;6315987;27;97434;-70
2022/05/05 06:57:24;;;;;;;;;16.60;15.60;;;;;23.63;34.32;99084.53;6297828;27;96428;-69
2022/05/05 07:01:51;;;;;;;;;19.25;16.00;;;;;23.81;33.48;99085.56;6294565;27;97009;-68
2022/05/05 07:05:23;;;;;;;;;18.60;17.80;;;;;24.02;33.80;99084.88;6315487;27;96565;-68
2022/05/05 07:07:16;;;;;;;;;18.25;17.00;;;;;24.24;33.53;99086.94;6296027;27;97980;-69
2022/05/05 07:13:41;;;;;;;;;18.33;18.00;;;;;24.90;32.68;99094.66;6280777;27;97247;-69
2022/05/05 07:16:48;;;;;;;;;17.20;15.00;;;;;25.25;31.70;99097.72;6296896;27;100312;-69
2022/05/05 07:19:52;;;;;;;;;17.00;16.00;;;;;25.48;31.42;99085.53;6315749;27;97357;-69
2022/05/05 07:22:56;;;;;;;;;17.00;15.60;;;;;25.81;31.34;99100.72;6309305;27;96600;-69
2022/05/05 07:26:01;;;;;;;;;20.00;17.80;;;;;25.75;30.28;99099.25;6311717;27;97519;-69
2022/05/05 07:29:04;;;;;;;;;20.00;18.00;;;;;25.91;30.34;99101.59;6272939;27;99448;-70
2022/05/05 07:32:10;;;;;;;;;19.60;17.00;;;;;26.10;31.12;99102.97;6271767;27;98121;-70
2022/05/05 07:35:14;;;;;;;;;21.00;19.00;;;;;26.33;29.90;99094.66;6271107;27;97312;-69
2022/05/05 07:38:17;;;;;;;;;22.40;19.40;;;;;26.52;30.06;99093.25;6271501;27;99642;-69
2022/05/05 07:41:23;;;;;;;;;17.25;16.25;;;;;26.87;30.41;99088.63;6281351;27;97979;-69
2022/05/05 07:44:27;;;;;;;;;20.50;19.00;;;;;27.21;29.49;99098.91;6288687;27;98053;-69
2022/05/05 07:47:33;;;;;;;;;16.60;16.00;;;;;27.53;28.67;99103.13;6289820;27;96465;-69
2022/05/05 07:50:37;;;;;;;;;17.00;15.00;;;;;27.77;27.92;99089.56;6277358;27;96813;-69
2022/05/05 07:53:40;;;;;;;;;17.00;15.60;;;;;27.92;28.11;99094.56;6296387;27;96621;-69
2022/05/05 07:56:43;;;;;;;;;16.40;14.40;;;;;28.08;27.57;99089.31;6315220;27;97482;-70
2022/05/05 07:59:48;;;;;;;;;19.40;17.00;;;;;28.28;27.17;99093.34;6296385;27;98517;-70
2022/05/05 08:02:57;;;;;;;;;17.00;15.00;;;;;28.49;27.54;99087.84;6290041;27;97435;-69
2022/05/05 08:06:01;;;;;;;;;16.00;15.00;;;;;28.68;26.86;99091.00;6290040;27;96449;-69
2022/05/05 08:09:05;;;;;;;;;15.00;14.00;;;;;28.81;27.10;99092.72;6303876;27;97477;-69
2022/05/05 08:12:09;;;;;;;;;14.00;13.00;;;;;28.92;26.57;99095.94;6308988;27;99148;-70
2022/05/05 08:15:13;;;;;;;;;14.00;13.00;;;;;29.12;26.69;99097.91;6285585;27;99432;-70
2022/05/05 08:18:18;;;;;;;;;13.00;12.20;;;;;29.26;25.62;99090.09;6312389;27;97243;-70
2022/05/05 08:21:21;;;;;;;;;12.00;11.00;;;;;29.17;25.38;99092.94;6310936;27;97617;-70
2022/05/05 08:31:07;;;;;;;;;12.00;11.00;;;;;29.76;25.09;99092.75;6314701;27;97419;-69
2022/05/05 08:34:12;;;;;;;;;10.20;9.80;;;;;30.06;25.00;99094.22;6294837;27;98456;-70
2022/05/05 08:37:16;;;;;;;;;11.00;10.00;;;;;30.36;25.14;99091.22;6294493;27;97013;-70
2022/05/05 08:40:23;;;;;;;;;10.00;9.00;;;;;30.48;24.32;99094.06;6295798;27;98055;-69
2022/05/05 08:43:27;;;;;;;;;10.75;10.00;;;;;30.63;24.70;99090.56;6295796;27;96569;-70
2022/05/05 08:46:53;;;;;;;;;9.00;8.00;;;;;30.91;23.97;99083.09;6313630;27;96701;-70
2022/05/05 08:50:02;;;;;;;;;9.00;8.00;;;;;31.01;22.99;99081.78;6296034;27;97830;-70
2022/05/05 08:53:07;;;;;;;;;10.40;9.00;;;;;31.17;23.97;99084.69;6314687;27;98072;-71
2022/05/05 08:56:10;;;;;;;;;9.00;8.00;;;;;31.27;22.28;99087.78;6267346;27;97609;-71
2022/05/05 08:59:22;;;;;;;;;7.00;7.00;;;;;31.24;22.58;99082.09;6295704;27;97515;-71
2022/05/05 09:02:26;;;;;;;;;7.00;7.00;;;;;31.20;22.67;99079.22;6313492;27;96469;-71
2022/05/05 09:05:49;;;;;;;;;8.00;7.00;;;;;31.29;22.99;99081.84;6294766;27;96674;-70
2022/05/05 09:08:52;;;;;;;;;9.00;8.60;;;;;31.47;22.92;99083.19;6311941;27;97922;-70
2022/05/05 09:12:13;;;;;;;;;8.00;8.00;;;;;31.72;23.12;99078.28;6288606;27;96358;-70
2022/05/05 09:15:16;;;;;;;;;7.75;7.75;;;;;32.06;23.12;99074.81;6269755;27;96770;-71
2022/05/05 09:18:21;;;;;;;;;7.00;7.00;;;;;32.04;22.43;99090.31;6287964;27;97560;-71
2022/05/05 09:21:35;;;;;;;;;7.00;7.00;;;;;31.96;21.81;99085.72;6308661;27;96796;-71
2022/05/05 09:24:43;;;;;;;;;8.00;7.60;;;;;31.78;21.54;99085.25;6313530;27;97491;-71
2022/05/05 09:27:51;;;;;;;;;8.00;7.00;;;;;31.61;21.61;99083.59;6314314;27;96494;-70
2022/05/05 09:30:55;;;;;;;;;8.00;7.00;;;;;31.77;21.93;99081.63;6299130;27;97044;-70
2022/05/05 09:33:58;;;;;;;;;7.00;6.80;;;;;31.98;21.76;99073.03;6290220;27;96576;-71
2022/05/05 09:37:20;;;;;;;;;8.00;8.00;;;;;31.98;21.39;99080.59;6269656;27;97950;-69
2022/05/05 09:40:24;;;;;;;;;6.25;6.00;;;;;32.07;21.51;99078.44;6311214;27;97016;-71
2022/05/05 09:43:29;;;;;;;;;6.00;6.00;;;;;32.24;21.37;99081.72;6277239;27;98662;-70
2022/05/05 09:46:36;;;;;;;;;7.00;6.67;;;;;31.94;22.09;99074.09;6293143;27;97162;-70
2022/05/05 09:49:39;;;;;;;;;7.00;7.00;;;;;32.06;21.93;99068.47;6268703;27;96829;-70
2022/05/05 09:59:34;;;;;;;;;8.00;7.40;;;;;32.85;22.02;99067.22;6293961;27;96626;-71
2022/05/05 10:06:03;;;;;;;;;8.00;8.00;;;;;33.48;21.09;99073.38;6285094;27;98521;-71
2022/05/05 10:09:10;;;;;;;;;9.00;8.00;;;;;33.70;21.77;99071.84;6284171;27;97659;-70
2022/05/05 10:12:14;;;;;;;;;8.00;7.25;;;;;33.88;20.09;99064.56;6267199;27;97759;-70
2022/05/05 10:15:19;;;;;;;;;9.00;9.00;;;;;34.02;19.94;99066.00;6294539;27;96362;-70
2022/05/05 10:18:22;;;;;;;;;7.00;7.00;;;;;33.85;19.21;99067.31;6316641;27;97470;-71
2022/05/05 10:21:38;;;;;;;;;6.00;6.00;;;;;33.68;19.31;99068.59;6281600;27;97989;-70
2022/05/05 10:24:53;;;;;;;;;6.00;6.00;;;;;33.49;20.12;99061.03;6297670;27;96707;-71
2022/05/05 10:27:56;;;;;;;;;7.00;6.75;;;;;33.30;19.45;99061.03;6272561;27;97844;-69
2022/05/05 10:31:00;;;;;;;;;7.00;6.00;;;;;33.10;19.31;99060.19;6273162;27;96539;-70
2022/05/05 10:34:06;;;;;;;;;6.00;6.00;;;;;32.95;19.30;99057.47;6273561;27;96528;-70
2022/05/05 10:37:11;;;;;;;;;7.00;6.00;;;;;32.91;19.98;99054.59;6310812;27;97553;-69
2022/05/05 10:40:16;;;;;;;;;9.00;8.00;;;;;33.10;19.01;99064.97;6283786;27;96570;-69
2022/05/05 10:43:32;;;;;;;;;8.00;8.00;;;;;33.03;19.19;99050.88;6276496;27;98411;-70
2022/05/05 10:47:09;;;;;;;;;7.50;7.00;;;;;33.28;19.02;99048.63;6280436;27;96763;-70
2022/05/05 10:50:28;;;;;;;;;7.00;7.00;;;;;33.53;19.07;99056.31;6188827;28;96663;-70
2022/05/05 10:53:34;;;;;;;;;7.00;6.00;;;;;34.05;19.57;99059.69;6171450;28;97123;-70
2022/05/05 10:56:39;;;;;;;;;5.00;5.00;;;;;34.51;19.34;99052.06;6188440;28;97797;-70
2022/05/05 11:00:07;;;;;;;;;6.00;6.00;;;;;35.15;19.31;99043.38;6187099;28;96655;-69
2022/05/05 11:03:15;;;;;;;;;6.75;6.00;;;;;35.44;17.22;99038.13;6171585;28;96844;-70
2022/05/05 11:06:19;;;;;;;;;7.00;6.00;;;;;35.42;17.77;99043.34;6187092;28;96566;-69
2022/05/05 11:09:30;;;;;;;;;7.00;6.00;;;;;35.57;18.36;99040.31;6154486;28;96746;-69
2022/05/05 11:12:38;;;;;;;;;6.00;6.00;;;;;35.49;17.89;99020.97;6161504;28;96928;-70
2022/05/05 11:22:33;;;;;;;;;8.00;7.25;;;;;35.24;17.85;99036.72;6314297;27;97532;-71
2022/05/05 11:25:42;;;;;;;;;7.00;7.00;;;;;35.18;18.00;99039.06;6315044;27;97485;-70
2022/05/05 11:28:48;;;;;;;;;9.00;7.40;;;;;34.98;17.33;99029.97;6287858;27;97275;-70
2022/05/05 11:32:02;;;;;;;;;7.00;7.00;;;;;34.87;18.13;99028.19;6279594;27;96684;-69
2022/05/05 11:35:06;;;;;;;;;7.00;7.00;;;;;34.97;18.71;99019.13;6315205;27;96553;-71
2022/05/05 11:38:10;;;;;;;;;6.00;6.00;;;;;35.12;17.78;99029.34;6288191;27;96455;-71
2022/05/05 11:41:18;;;;;;;;;9.00;7.25;;;;;35.30;18.91;99021.97;6289414;27;96487;-71
2022/05/05 11:44:25;;;;;;;;;7.00;6.00;;;;;35.33;18.37;99017.59;6271004;27;96792;-70
2022/05/05 11:47:29;;;;;;;;;8.00;6.00;;;;;35.29;18.07;99020.34;6310146;27;96395;-71
2022/05/05 11:50:32;;;;;;;;;8.00;7.00;;;;;35.41;18.38;99013.69;6314960;27;96411;-71
2022/05/05 11:53:36;;;;;;;;;7.00;7.00;;;;;35.59;17.70;99023.88;6296693;27;96878;-70
2022/05/05 11:56:45;;;;;;;;;8.00;7.60;;;;;35.82;17.89;99018.16;6312039;27;98138;-71
2022/05/05 12:03:20;;;;;;;;;6.00;6.00;;;;;35.38;17.05;98994.84;6312765;27;97553;-70
2022/05/05 12:06:25;;;;;;;;;7.20;7.20;;;;;35.32;17.44;99025.22;6296069;27;96634;-70
2022/05/05 12:09:28;;;;;;;;;9.40;8.40;;;;;34.85;17.19;99016.56;6295961;27;97949;-70
2022/05/05 12:12:37;;;;;;;;;7.00;6.00;;;;;34.39;17.79;99027.91;6284184;27;99491;-70
2022/05/05 12:15:41;;;;;;;;;6.00;6.00;;;;;34.16;18.28;99024.31;6269941;27;97119;-70
2022/05/05 12:18:51;;;;;;;;;6.20;6.20;;;;;34.09;18.73;99026.97;6286629;27;96639;-70
2022/05/05 12:22:12;;;;;;;;;7.00;7.00;;;;;33.01;19.26;99017.72;6289572;27;97507;-70
2022/05/05 12:25:17;;;;;;;;;8.75;8.00;;;;;32.48;20.26;99016.50;6289194;27;96978;-70
2022/05/05 12:28:21;;;;;;;;;8.00;7.25;;;;;32.05;20.35;99016.63;6298570;27;96603;-70
2022/05/05 12:31:28;;;;;;;;;8.00;7.00;;;;;31.27;22.26;99015.34;6308319;27;97239;-68
2022/05/05 12:34:50;;;;;;;;;6.00;5.00;;;;;30.41;24.23;99015.88;6270830;27;97405;-70
2022/05/05 12:37:58;;;;;;;;;6.60;6.60;;;;;30.02;24.56;99012.66;6285643;27;97266;-69
2022/05/05 12:41:07;;;;;;;;;6.00;6.00;;;;;29.32;25.54;99019.34;6289122;27;96495;-71
2022/05/05 12:44:14;;;;;;;;;4.60;4.60;;;;;28.81;26.39;99012.25;6269257;27;97901;-70
2022/05/05 12:47:28;;;;;;;;;6.40;6.00;;;;;28.33;27.38;99012.72;6269834;27;96965;-71
2022/05/05 12:50:34;;;;;;;;;4.00;4.00;;;;;27.73;28.73;99018.53;6314055;27;97438;-70
2022/05/05 13:00:29;;;;;;;;;4.75;4.00;;;;;26.71;30.89;98996.97;6229297;27;96781;-69
2022/05/05 13:03:56;;;;;;;;;4.80;4.80;;;;;26.39;31.44;98999.41;6312496;27;96517;-69
2022/05/05 13:06:59;;;;;;;;;5.00;5.00;;;;;25.79;31.65;98972.38;6314398;27;97028;-68
2022/05/05 13:10:02;;;;;;;;;5.40;5.00;;;;;26.53;30.38;98989.81;6289361;27;98382;-69
2022/05/05 13:13:06;;;;;;;;;4.60;4.60;;;;;26.46;30.67;98994.19;6303736;27;97487;-69
2022/05/05 13:16:10;;;;;;;;;5.00;5.00;;;;;26.60;29.37;98990.13;6294405;27;97409;-70
2022/05/05 13:19:15;;;;;;;;;5.00;4.00;;;;;26.25;30.59;98996.75;6294547;27;97158;-69
2022/05/05 13:22:19;;;;;;;;;5.60;5.00;;;;;26.30;30.04;98989.13;6288674;27;96846;-69
2022/05/05 13:25:24;;;;;;;;;6.00;5.00;;;;;26.73;29.43;98986.38;6288254;27;97462;-70
2022/05/05 13:28:28;;;;;;;;;5.20;5.00;;;;;26.74;28.71;98985.25;6288684;27;97433;-69
2022/05/05 13:31:32;;;;;;;;;6.40;6.00;;;;;26.88;28.80;98978.78;6287999;27;97447;-69
2022/05/05 13:34:36;;;;;;;;;5.00;5.00;;;;;27.13;28.65;98978.75;6294728;27;96701;-69
2022/05/05 13:37:40;;;;;;;;;7.40;7.00;;;;;27.13;28.05;98991.75;6313333;27;96336;-69
2022/05/05 13:40:43;;;;;;;;;5.00;5.00;;;;;27.05;28.38;98984.28;6313171;27;98585;-70
2022/05/05 13:43:47;;;;;;;;;5.80;4.80;;;;;26.97;28.56;98974.06;6310117;27;96687;-69
2022/05/05 13:46:50;;;;;;;;;6.00;6.00;;;;;26.67;28.98;98984.13;6312833;27;96473;-70
2022/05/05 13:49:55;;;;;;;;;5.00;5.00;;;;;26.72;28.94;98983.97;6292642;27;98442;-70
2022/05/05 13:52:59;;;;;;;;;5.00;5.00;;;;;26.78;29.12;98976.31;6291758;27;97439;-70
2022/05/05 13:56:02;;;;;;;;;5.80;5.00;;;;;27.17;29.13;98979.69;6313074;27;96476;-69
2022/05/05 13:59:06;;;;;;;;;6.00;5.00;;;;;27.39;28.30;98981.47;6303041;27;96691;-70
2022/05/05 14:02:09;;;;;;;;;7.00;6.00;;;;;27.55;28.08;98973.47;6297314;27;98393;-70
2022/05/05 14:05:14;;;;;;;;;6.00;5.60;;;;;27.60;27.75;98978.81;6299976;27;97870;-69
2022/05/05 14:15:00;;;;;;;;;7.00;7.00;;;;;27.67;27.67;98969.97;6287580;27;98450;-70
2022/05/05 14:18:05;;;;;;;;;5.00;5.00;;;;;27.71;27.76;98966.22;6302418;27;96433;-70
2022/05/05 14:21:13;;;;;;;;;7.00;6.00;;;;;27.63;28.12;98974.56;6310319;27;96729;-69
2022/05/05 14:24:17;;;;;;;;;7.50;6.50;;;;;27.45;28.38;98982.09;6284059;27;97420;-69
2022/05/05 14:27:20;;;;;;;;;7.00;6.00;;;;;27.41;28.53;98987.50;6295232;27;97483;-71
2022/05/05 14:30:24;;;;;;;;;7.00;7.00;;;;;27.46;28.88;98978.19;6311450;27;96712;-70
2022/05/05 14:33:27;;;;;;;;;6.00;5.00;;;;;27.20;29.21;98992.09;6278234;27;97426;-70
2022/05/05 14:36:33;;;;;;;;;7.00;6.40;;;;;27.30;29.43;98991.75;6285252;27;97482;-70
2022/05/05 14:39:36;;;;;;;;;5.00;5.00;;;;;27.35;29.28;98994.34;6285816;27;96649;-70
2022/05/05 14:42:44;;;;;;;;;7.00;6.80;;;;;27.37;29.49;98994.00;6292922;27;97935;-69
2022/05/05 14:45:48;;;;;;;;;5.00;5.00;;;;;27.72;28.68;99003.84;6291745;27;97402;-69
2022/05/05 14:48:51;;;;;;;;;6.00;5.60;;;;;27.73;29.18;98999.13;6275543;27;96808;-70
2022/05/05 14:51:56;;;;;;;;;7.00;7.00;;;;;27.82;28.90;99006.25;6291741;27;97546;-69
2022/05/05 14:55:00;;;;;;;;;7.00;6.00;;;;;27.98;29.01;98993.47;6287069;27;97465;-69
2022/05/05 14:58:04;;;;;;;;;6.00;6.00;;;;;28.10;27.79;98995.53;6271936;27;98438;-69
2022/05/05 15:01:08;;;;;;;;;7.00;6.00;;;;;27.73;27.06;98936.22;6292568;27;97370;-69
2022/05/05 15:04:11;;;;;;;;;6.00;6.00;;;;;28.30;27.37;98991.19;6313513;27;97460;-69
2022/05/05 15:07:16;;;;;;;;;7.00;5.00;;;;;28.25;27.03;98986.66;6302512;27;97419;-69
2022/05/05 15:10:20;;;;;;;;;6.60;5.00;;;;;28.30;26.32;98983.69;6311739;27;96702;-70
2022/05/05 15:13:23;;;;;;;;;6.00;6.00;;;;;27.78;26.80;98976.78;6313129;27;96625;-69
2022/05/05 15:16:30;;;;;;;;;6.00;6.00;;;;;27.67;27.06;98958.91;6295393;27;98476;-69
2022/05/05 15:19:34;;;;;;;;;3.00;3.00;;;;;27.72;26.63;98973.38;6287783;27;97290;-69